Time;durP1;ratioP1;P1;durP2;ratioP2;P2;SDS_P1;SDS_P2;PMS_P1;PMS_P2;Temp;Humidity;BMP_temperature;BMP_pressure;BME280_temperature;BME280_humidity;BME280_pressure;Samples;Min_cycle;Max_cycle;Signal;HPM_P1;HPM_P2
2021/01/26 00:02:11;;;;;;;12.35;11.05;;;1.00;99.90;;;;;;4992332;28;20026;-73
2021/01/26 00:04:37;;;;;;;11.15;9.52;;;1.00;99.90;;;;;;5005352;28;20042;-73
2021/01/26 00:07:03;;;;;;;10.85;9.75;;;1.00;99.90;;;;;;4997364;28;20033;-73
2021/01/26 00:09:29;;;;;;;11.05;9.52;;;1.00;99.90;;;;;;4994908;28;20414;-72
2021/01/26 00:11:55;;;;;;;10.15;9.13;;;1.00;99.90;;;;;;4993408;28;20034;-72
2021/01/26 00:14:20;;;;;;;10.82;9.73;;;0.90;99.90;;;;;;4994706;28;20368;-72
2021/01/26 00:16:47;;;;;;;12.57;9.73;;;0.90;99.90;;;;;;4997542;28;20042;-72
2021/01/26 00:19:12;;;;;;;13.02;11.70;;;1.00;99.90;;;;;;4988282;28;20026;-73
2021/01/26 00:21:38;;;;;;;11.52;9.43;;;0.90;99.90;;;;;;4991328;28;20133;-73
2021/01/26 00:24:04;;;;;;;11.75;10.23;;;1.00;99.90;;;;;;4983873;28;20019;-73
2021/01/26 00:26:30;;;;;;;10.63;9.48;;;0.90;99.90;;;;;;4994988;28;20027;-73
2021/01/26 00:28:55;;;;;;;10.80;9.68;;;0.90;99.90;;;;;;4993409;28;20486;-73
2021/01/26 00:31:21;;;;;;;11.13;9.23;;;0.90;99.90;;;;;;4996285;28;20035;-72
2021/01/26 00:33:49;;;;;;;15.88;10.50;;;0.90;99.90;;;;;;4995890;28;20041;-73
2021/01/26 00:36:15;;;;;;;11.45;10.20;;;0.90;99.90;;;;;;4996759;28;20038;-73
2021/01/26 00:38:41;;;;;;;10.88;9.77;;;0.90;99.90;;;;;;4994320;28;20046;-72
2021/01/26 00:41:06;;;;;;;10.25;9.25;;;1.00;99.90;;;;;;4994057;28;20046;-71
2021/01/26 00:43:32;;;;;;;10.80;9.48;;;1.00;99.90;;;;;;4994155;28;20054;-73
2021/01/26 00:45:57;;;;;;;11.45;10.25;;;1.00;99.90;;;;;;4995281;28;20389;-73
2021/01/26 00:48:23;;;;;;;11.20;9.63;;;1.00;99.90;;;;;;4992915;28;20029;-72
2021/01/26 00:50:48;;;;;;;10.95;9.85;;;1.00;99.90;;;;;;4993863;28;20038;-73
2021/01/26 00:53:15;;;;;;;11.35;9.70;;;1.00;99.90;;;;;;4993277;28;20528;-73
2021/01/26 00:55:40;;;;;;;10.13;9.13;;;1.00;99.90;;;;;;4994814;28;20057;-74
2021/01/26 00:58:06;;;;;;;11.15;8.80;;;1.00;99.90;;;;;;4992822;28;20046;-72
2021/01/26 01:00:35;;;;;;;13.23;10.32;;;1.00;99.90;;;;;;4988422;28;20509;-74
2021/01/26 01:03:00;;;;;;;10.52;9.43;;;0.90;99.90;;;;;;4991553;28;20030;-73
2021/01/26 01:05:26;;;;;;;10.15;9.20;;;0.90;99.90;;;;;;4986850;28;20367;-74
2021/01/26 01:07:53;;;;;;;10.10;8.98;;;0.90;99.90;;;;;;4999373;28;20050;-73
2021/01/26 01:10:22;;;;;;;13.07;8.82;;;0.90;99.90;;;;;;5004337;28;20057;-73
2021/01/26 01:12:48;;;;;;;10.18;8.35;;;0.80;99.90;;;;;;5004670;28;20037;-73
2021/01/26 01:15:15;;;;;;;9.38;8.48;;;0.80;99.90;;;;;;4999505;28;20105;-73
2021/01/26 01:17:41;;;;;;;9.43;8.15;;;0.80;99.90;;;;;;4990520;28;20138;-73
2021/01/26 01:20:08;;;;;;;8.95;7.70;;;0.90;99.90;;;;;;4993349;28;20057;-74
2021/01/26 01:22:34;;;;;;;9.43;8.40;;;0.90;99.90;;;;;;4991180;28;20027;-74
2021/01/26 01:24:59;;;;;;;8.10;7.30;;;1.00;99.90;;;;;;4994005;28;20057;-74
2021/01/26 01:27:25;;;;;;;8.32;7.40;;;1.00;99.90;;;;;;4993225;28;20120;-73
2021/01/26 01:29:51;;;;;;;7.88;7.15;;;1.10;99.90;;;;;;4994137;28;20034;-72
2021/01/26 01:32:17;;;;;;;9.05;7.03;;;1.10;99.90;;;;;;4993171;28;20033;-73
2021/01/26 01:34:46;;;;;;;9.73;8.82;;;1.20;99.90;;;;;;4976886;28;20082;-73
2021/01/26 01:37:11;;;;;;;7.82;7.03;;;1.20;99.90;;;;;;4985468;28;20383;-73
2021/01/26 01:39:40;;;;;;;7.50;6.70;;;1.20;99.90;;;;;;4976463;28;20155;-74
2021/01/26 01:42:11;;;;;;;8.05;7.20;;;1.20;99.90;;;;;;4972917;28;20169;-74
2021/01/26 01:44:37;;;;;;;7.10;6.40;;;1.10;99.90;;;;;;4976166;28;20402;-73
2021/01/26 01:47:10;;;;;;;8.10;6.93;;;1.10;99.90;;;;;;4974820;28;20081;-74
2021/01/26 01:49:44;;;;;;;6.15;5.55;;;1.10;99.90;;;;;;4977985;28;20031;-74
2021/01/26 01:52:16;;;;;;;6.88;6.18;;;1.20;99.90;;;;;;4987572;28;20510;-73
2021/01/26 01:54:46;;;;;;;10.27;8.85;;;1.10;99.90;;;;;;4988672;28;20026;-73
2021/01/26 01:57:23;;;;;;;6.55;5.70;;;1.10;99.90;;;;;;4974860;28;20118;-74
2021/01/26 02:00:00;;;;;;;6.35;5.72;;;1.10;99.90;;;;;;4988429;28;20058;-72
2021/01/26 02:02:27;;;;;;;7.40;6.40;;;1.10;99.90;;;;;;4987163;28;20429;-72
2021/01/26 02:04:58;;;;;;;9.77;7.07;;;1.10;99.90;;;;;;4989495;28;20026;-74
2021/01/26 02:07:24;;;;;;;9.02;6.90;;;1.10;99.90;;;;;;5003987;28;20019;-73
2021/01/26 02:09:51;;;;;;;6.75;6.05;;;1.10;99.90;;;;;;4990037;28;20057;-73
2021/01/26 02:12:20;;;;;;;7.32;6.35;;;1.20;99.90;;;;;;4993246;28;20098;-73
2021/01/26 02:14:55;;;;;;;8.15;6.43;;;1.20;99.90;;;;;;4994028;28;20249;-72
2021/01/26 02:17:59;;;;;;;8.50;7.15;;;1.20;99.90;;;;;;4993882;28;20027;-73
2021/01/26 02:21:02;;;;;;;8.73;7.25;;;1.20;99.90;;;;;;4993512;28;20026;-75
2021/01/26 02:23:46;;;;;;;8.25;6.60;;;1.20;99.90;;;;;;4993862;28;20441;-75
2021/01/26 02:26:21;;;;;;;9.48;6.55;;;1.30;99.90;;;;;;4995240;28;20045;-74
2021/01/26 02:28:58;;;;;;;7.82;6.32;;;1.20;99.90;;;;;;4996475;28;20023;-73
2021/01/26 02:31:42;;;;;;;8.52;6.15;;;1.20;99.90;;;;;;4988372;28;20105;-73
2021/01/26 02:34:45;;;;;;;7.57;6.07;;;1.20;99.90;;;;;;4999890;28;20026;-72
2021/01/26 02:37:32;;;;;;;10.02;6.45;;;1.20;99.90;;;;;;5000517;28;20026;-73
2021/01/26 02:39:57;;;;;;;8.73;7.13;;;1.20;99.90;;;;;;4996334;28;20438;-73
2021/01/26 02:42:29;;;;;;;9.88;7.10;;;1.20;99.90;;;;;;5008573;28;20034;-72
2021/01/26 02:45:17;;;;;;;7.25;6.55;;;1.20;99.90;;;;;;5005287;28;20019;-72
2021/01/26 02:48:08;;;;;;;10.68;8.07;;;1.20;99.90;;;;;;4986476;28;20031;-74
2021/01/26 02:50:45;;;;;;;9.63;7.18;;;1.20;99.90;;;;;;4994983;28;20031;-72
2021/01/26 02:53:38;;;;;;;8.13;6.40;;;1.20;99.90;;;;;;4998935;28;20065;-73
2021/01/26 02:56:19;;;;;;;10.30;7.07;;;1.30;99.90;;;;;;4999130;28;20060;-72
2021/01/26 02:59:03;;;;;;;8.68;6.80;;;1.30;99.90;;;;;;5004174;28;20028;-73
2021/01/26 03:01:38;;;;;;;7.40;6.55;;;1.30;99.90;;;;;;5007476;28;20489;-74
2021/01/26 03:04:08;;;;;;;9.70;6.82;;;1.40;99.90;;;;;;4999966;28;20023;-73
2021/01/26 03:06:37;;;;;;;8.93;7.15;;;1.40;99.90;;;;;;4998614;28;20040;-73
2021/01/26 03:09:09;;;;;;;8.63;6.28;;;1.40;99.90;;;;;;4998343;28;20022;-73
2021/01/26 03:11:40;;;;;;;7.68;6.25;;;1.40;99.90;;;;;;4996147;28;20458;-73
2021/01/26 03:14:17;;;;;;;9.07;6.82;;;1.30;99.90;;;;;;4997374;28;20084;-73
2021/01/26 03:16:58;;;;;;;7.93;7.13;;;1.30;99.90;;;;;;5002672;28;20037;-73
2021/01/26 03:19:31;;;;;;;10.15;6.88;;;1.20;99.90;;;;;;4997522;28;20084;-72
2021/01/26 03:21:59;;;;;;;8.93;7.68;;;1.20;99.90;;;;;;4997199;28;20486;-72
2021/01/26 03:24:37;;;;;;;10.43;7.38;;;1.10;99.90;;;;;;4996224;28;20117;-74
2021/01/26 03:27:11;;;;;;;10.18;7.50;;;1.10;99.90;;;;;;4987939;28;20054;-72
2021/01/26 03:29:40;;;;;;;8.77;7.50;;;1.00;99.90;;;;;;4997088;28;20038;-73
2021/01/26 03:32:11;;;;;;;8.93;7.60;;;1.00;99.90;;;;;;4996775;28;20050;-73
2021/01/26 03:34:37;;;;;;;;;;;1.00;99.90;;;;;;4997527;28;20429;-72
2021/01/26 03:37:06;;;;;;;9.35;7.60;;;1.00;99.90;;;;;;4996166;28;19934;-73
2021/01/26 03:39:32;;;;;;;11.07;8.02;;;1.00;99.90;;;;;;4995889;28;20236;-73
2021/01/26 03:42:01;;;;;;;8.95;8.05;;;1.00;99.90;;;;;;4996985;28;20034;-73
2021/01/26 03:44:28;;;;;;;7.32;6.55;;;1.00;99.90;;;;;;4989024;28;20022;-74
2021/01/26 03:47:13;;;;;;;8.55;6.85;;;1.10;99.90;;;;;;4996557;28;20382;-74
2021/01/26 03:50:04;;;;;;;7.88;6.80;;;1.10;99.90;;;;;;4994244;28;20026;-74
2021/01/26 03:53:07;;;;;;;7.70;6.80;;;1.20;99.90;;;;;;4980855;28;20094;-74
2021/01/26 03:55:44;;;;;;;9.43;7.05;;;1.20;99.90;;;;;;4996670;28;20034;-73
2021/01/26 03:58:28;;;;;;;11.57;6.85;;;1.30;99.90;;;;;;4995425;28;20033;-73
2021/01/26 04:01:26;;;;;;;8.65;7.68;;;1.30;99.90;;;;;;4995039;28;20030;-73
2021/01/26 04:04:06;;;;;;;10.48;7.32;;;1.20;99.90;;;;;;4996274;28;20509;-73
2021/01/26 04:06:45;;;;;;;8.60;6.45;;;1.30;99.90;;;;;;4995974;28;20069;-72
2021/01/26 04:09:16;;;;;;;8.95;7.53;;;1.30;99.90;;;;;;4996442;28;20110;-73
2021/01/26 04:11:50;;;;;;;7.40;6.63;;;1.40;99.90;;;;;;4996030;28;20031;-73
2021/01/26 04:14:29;;;;;;;12.82;8.70;;;1.30;99.90;;;;;;4996226;28;20494;-73
2021/01/26 04:17:11;;;;;;;8.43;7.20;;;1.40;99.90;;;;;;4995357;28;20379;-72
2021/01/26 04:19:45;;;;;;;9.35;6.45;;;1.40;99.90;;;;;;4995231;28;20042;-72
2021/01/26 04:22:13;;;;;;;9.80;7.00;;;1.40;99.90;;;;;;4998197;28;20029;-73
2021/01/26 04:24:38;;;;;;;7.35;6.45;;;1.40;99.90;;;;;;4998355;28;20026;-73
2021/01/26 04:27:20;;;;;;;9.27;6.90;;;1.30;99.90;;;;;;4995449;28;20109;-74
2021/01/26 04:29:45;;;;;;;;;;;1.40;99.90;;;;;;4994552;28;20482;-73
2021/01/26 04:32:11;;;;;;;7.80;6.55;;;1.30;99.90;;;;;;4993471;28;19994;-72
2021/01/26 04:34:37;;;;;;;8.18;6.10;;;1.40;99.90;;;;;;4995143;28;20490;-73
2021/01/26 04:37:03;;;;;;;8.05;6.15;;;1.40;99.90;;;;;;4993677;28;20046;-72
2021/01/26 04:39:28;;;;;;;7.18;5.70;;;1.40;99.90;;;;;;4994010;28;20049;-72
2021/01/26 04:42:00;;;;;;;9.30;6.38;;;1.40;99.90;;;;;;4994629;28;20030;-72
2021/01/26 04:44:48;;;;;;;10.38;5.60;;;1.50;99.90;;;;;;4997299;28;20092;-74
2021/01/26 04:47:23;;;;;;;7.03;5.95;;;1.50;99.90;;;;;;4992719;28;20041;-73
2021/01/26 04:50:02;;;;;;;5.55;4.97;;;1.50;99.90;;;;;;4995142;28;20031;-74
2021/01/26 04:53:02;;;;;;;8.10;6.15;;;1.50;99.90;;;;;;4993519;28;20034;-73
2021/01/26 04:55:33;;;;;;;7.50;5.13;;;1.60;99.90;;;;;;4993164;28;20065;-73
2021/01/26 04:58:29;;;;;;;6.88;5.05;;;1.60;99.90;;;;;;4993050;28;20093;-73
2021/01/26 05:01:12;;;;;;;6.63;5.30;;;1.70;99.90;;;;;;4994088;28;20046;-73
2021/01/26 05:04:00;;;;;;;7.40;5.35;;;1.70;99.90;;;;;;4993964;28;20061;-73
2021/01/26 05:06:44;;;;;;;7.93;5.75;;;1.70;99.90;;;;;;4993951;28;20387;-73
2021/01/26 05:09:42;;;;;;;5.47;4.97;;;1.70;99.90;;;;;;4993048;28;20112;-72
2021/01/26 05:12:11;;;;;;;6.22;4.15;;;1.70;99.90;;;;;;4991078;28;20129;-72
2021/01/26 05:14:43;;;;;;;8.45;4.93;;;1.70;99.90;;;;;;4994476;28;20034;-72
2021/01/26 05:17:15;;;;;;;5.63;4.50;;;1.70;99.90;;;;;;4994365;28;20030;-73
2021/01/26 05:19:48;;;;;;;8.32;4.85;;;1.70;99.90;;;;;;4993887;28;20430;-72
2021/01/26 05:22:35;;;;;;;8.48;5.15;;;1.70;99.90;;;;;;4991801;28;20038;-72
2021/01/26 05:25:09;;;;;;;7.43;4.70;;;1.70;99.90;;;;;;4988820;28;20101;-73
2021/01/26 05:27:35;;;;;;;8.20;4.78;;;1.70;99.90;;;;;;4990958;28;20026;-73
2021/01/26 05:30:04;;;;;;;6.65;4.57;;;1.70;99.90;;;;;;4989325;28;20026;-73
2021/01/26 05:32:30;;;;;;;5.90;5.00;;;1.70;99.90;;;;;;4992378;28;20528;-74
2021/01/26 05:34:56;;;;;;;11.88;5.88;;;1.70;99.90;;;;;;4986929;28;20030;-73
2021/01/26 05:37:23;;;;;;;6.80;5.15;;;1.70;99.90;;;;;;4992936;28;20062;-73
2021/01/26 05:40:05;;;;;;;7.50;4.50;;;1.70;99.90;;;;;;4992768;28;20030;-73
2021/01/26 05:42:31;;;;;;;6.30;4.30;;;1.70;99.90;;;;;;4990571;28;20034;-73
2021/01/26 05:45:00;;;;;;;8.30;4.30;;;1.70;99.90;;;;;;4988562;28;20026;-73
2021/01/26 05:47:36;;;;;;;8.85;5.50;;;1.70;99.90;;;;;;4994771;28;20501;-73
2021/01/26 05:50:03;;;;;;;6.47;4.82;;;1.80;99.90;;;;;;4998413;28;20402;-72
2021/01/26 05:52:40;;;;;;;7.15;5.60;;;1.80;99.90;;;;;;4991304;28;20394;-73
2021/01/26 05:55:24;;;;;;;7.88;4.90;;;1.80;99.90;;;;;;4991484;28;20109;-73
2021/01/26 05:57:50;;;;;;;5.40;4.13;;;1.80;99.90;;;;;;4987902;28;20026;-73
2021/01/26 06:00:28;;;;;;;5.50;4.13;;;1.80;99.90;;;;;;4993726;28;20129;-73
2021/01/26 06:03:17;;;;;;;5.95;4.07;;;1.80;99.90;;;;;;5001630;28;20030;-73
2021/01/26 06:05:59;;;;;;;5.88;5.28;;;1.80;99.90;;;;;;4987709;28;20058;-73
2021/01/26 06:08:24;;;;;;;5.13;4.03;;;1.90;99.50;;;;;;4995107;28;20055;-73
2021/01/26 06:10:50;;;;;;;6.38;4.38;;;1.80;99.50;;;;;;4989471;28;20030;-73
2021/01/26 06:13:24;;;;;;;4.75;3.22;;;1.80;99.90;;;;;;5001086;28;20053;-73
2021/01/26 06:16:04;;;;;;;3.42;2.92;;;1.80;94.30;;;;;;4989734;28;20054;-72
2021/01/26 06:18:30;;;;;;;5.70;3.40;;;1.90;85.10;;;;;;4996658;28;20034;-73
2021/01/26 06:21:22;;;;;;;3.38;2.10;;;1.90;90.40;;;;;;5001303;28;20078;-72
2021/01/26 06:23:47;;;;;;;4.38;2.33;;;2.00;77.90;;;;;;5003008;28;20054;-72
2021/01/26 06:26:13;;;;;;;4.55;2.55;;;2.00;73.10;;;;;;5001572;28;20018;-72
2021/01/26 06:28:47;;;;;;;5.95;3.08;;;2.00;70.50;;;;;;4996447;28;20030;-73
2021/01/26 06:31:19;;;;;;;4.00;2.70;;;2.00;60.50;;;;;;4997200;28;20034;-73
2021/01/26 06:33:44;;;;;;;5.43;2.33;;;2.10;65.60;;;;;;4997108;28;20030;-73
2021/01/26 06:36:36;;;;;;;6.60;3.22;;;2.10;52.60;;;;;;4996085;28;20056;-73
2021/01/26 06:39:27;;;;;;;5.13;2.85;;;2.10;61.30;;;;;;4996690;28;20026;-73
2021/01/26 06:42:09;;;;;;;5.25;2.47;;;2.10;79.30;;;;;;4997341;28;20034;-73
2021/01/26 06:44:58;;;;;;;3.08;2.20;;;2.10;94.00;;;;;;5003629;28;20018;-73
2021/01/26 06:47:39;;;;;;;3.67;1.90;;;2.10;94.40;;;;;;5010159;23;20046;-72
2021/01/26 06:50:22;;;;;;;8.77;3.40;;;2.10;99.90;;;;;;5003860;28;20046;-71
2021/01/26 06:53:10;;;;;;;3.38;2.38;;;2.00;99.90;;;;;;5013445;28;20049;-71
2021/01/26 06:56:18;;;;;;;4.75;2.80;;;2.00;99.90;;;;;;5005098;28;20102;-71
2021/01/26 06:59:11;;;;;;;3.35;2.85;;;2.10;99.90;;;;;;5007939;28;20034;-71
2021/01/26 07:02:01;;;;;;;3.90;2.53;;;2.00;99.90;;;;;;5021144;28;20098;-73
2021/01/26 07:04:48;;;;;;;4.38;2.70;;;2.10;99.90;;;;;;5007132;28;20018;-71
2021/01/26 07:07:41;;;;;;;8.40;3.47;;;2.10;99.90;;;;;;5001097;28;20033;-69
2021/01/26 07:10:46;;;;;;;4.25;2.03;;;2.10;99.90;;;;;;5001262;28;20026;-71
2021/01/26 07:13:29;;;;;;;3.80;2.20;;;2.10;99.10;;;;;;4998361;28;20022;-71
2021/01/26 07:16:23;;;;;;;3.83;2.40;;;2.10;99.90;;;;;;4996678;28;20025;-71
2021/01/26 07:19:06;;;;;;;4.25;2.45;;;2.10;99.90;;;;;;4995458;28;20033;-71
2021/01/26 07:21:50;;;;;;;4.35;2.85;;;2.10;99.90;;;;;;4996794;28;20031;-73
2021/01/26 07:24:47;;;;;;;6.53;2.97;;;2.10;99.90;;;;;;4997386;28;20023;-71
2021/01/26 07:27:45;;;;;;;6.03;2.90;;;2.10;99.90;;;;;;4998992;28;20033;-71
2021/01/26 07:30:19;;;;;;;8.30;2.70;;;2.10;99.90;;;;;;4981415;28;20025;-70
2021/01/26 07:32:47;;;;;;;7.13;2.42;;;1.90;99.90;;;;;;4998600;28;20072;-72
2021/01/26 07:35:22;;;;;;;3.25;2.25;;;1.90;99.90;;;;;;4996007;28;20058;-72
2021/01/26 07:37:53;;;;;;;2.72;2.42;;;1.90;99.90;;;;;;5010509;28;20026;-72
2021/01/26 07:40:48;;;;;;;4.55;2.03;;;1.90;99.90;;;;;;4995746;28;20030;-71
2021/01/26 07:43:32;;;;;;;5.13;2.80;;;1.90;99.90;;;;;;5004586;28;20054;-71
2021/01/26 07:46:07;;;;;;;5.07;2.45;;;1.90;99.90;;;;;;4994369;28;20018;-72
2021/01/26 07:49:02;;;;;;;4.38;3.05;;;2.00;99.90;;;;;;4995003;28;20105;-71
2021/01/26 07:51:32;;;;;;;5.68;2.42;;;2.00;99.90;;;;;;4996986;28;20033;-71
2021/01/26 07:54:14;;;;;;;5.53;2.25;;;2.00;99.90;;;;;;4994668;28;20112;-72
2021/01/26 07:56:41;;;;;;;5.18;2.17;;;2.10;99.90;;;;;;4988366;28;20034;-71
2021/01/26 07:59:10;;;;;;;4.13;2.08;;;2.20;99.90;;;;;;4993697;28;20026;-72
2021/01/26 08:01:49;;;;;;;2.30;1.67;;;2.30;99.90;;;;;;4994817;28;20060;-72
2021/01/26 08:04:16;;;;;;;4.65;1.92;;;2.40;99.90;;;;;;4995152;28;20525;-71
2021/01/26 08:06:44;;;;;;;5.10;2.13;;;2.40;99.90;;;;;;4993651;28;20031;-71
2021/01/26 08:09:13;;;;;;;13.20;2.85;;;2.50;99.90;;;;;;4995223;28;20099;-70
2021/01/26 08:11:51;;;;;;;2.28;2.05;;;2.50;99.90;;;;;;4989085;28;20035;-72
2021/01/26 08:14:17;;;;;;;7.18;3.15;;;2.50;96.80;;;;;;4994239;28;20044;-71
2021/01/26 08:16:52;;;;;;;4.00;2.38;;;2.50;99.90;;;;;;4992751;28;20030;-72
2021/01/26 08:19:45;;;;;;;3.25;2.33;;;2.50;97.30;;;;;;4988925;28;20046;-72
2021/01/26 08:22:22;;;;;;;3.83;2.58;;;2.60;90.40;;;;;;4987335;28;20397;-74
2021/01/26 08:25:02;;;;;;;6.20;3.17;;;2.50;93.50;;;;;;4994355;28;20026;-71
2021/01/26 08:27:37;;;;;;;5.13;2.90;;;2.60;88.30;;;;;;4991697;28;20027;-72
2021/01/26 08:30:31;;;;;;;5.95;3.30;;;2.50;45.40;;;;;;4995130;28;20018;-72
2021/01/26 08:33:12;;;;;;;6.13;2.45;;;2.60;69.90;;;;;;4986581;28;20029;-72
2021/01/26 08:35:45;;;;;;;4.07;2.10;;;2.50;58.60;;;;;;4995037;28;20031;-71
2021/01/26 08:38:45;;;;;;;4.30;2.50;;;2.60;82.90;;;;;;4993761;28;20097;-70
2021/01/26 08:41:11;;;;;;;4.57;2.83;;;2.60;85.00;;;;;;4993137;28;20036;-70
2021/01/26 08:43:48;;;;;;;4.57;2.13;;;2.60;67.00;;;;;;4987164;28;20042;-70
2021/01/26 08:46:36;;;;;;;7.82;3.47;;;2.60;38.30;;;;;;4993905;28;20449;-73
2021/01/26 08:49:18;;;;;;;6.95;3.47;;;2.60;66.10;;;;;;4999338;28;20030;-70
2021/01/26 08:51:44;;;;;;;6.45;3.55;;;2.50;58.60;;;;;;4997447;28;20041;-71
2021/01/26 08:54:09;;;;;;;9.45;4.32;;;2.60;91.40;;;;;;4999985;28;20090;-71
2021/01/26 08:56:38;;;;;;;7.20;3.85;;;2.50;95.80;;;;;;4997158;28;20050;-72
2021/01/26 08:59:06;;;;;;;6.00;3.83;;;2.50;97.30;;;;;;4996729;28;20058;-71
2021/01/26 09:01:35;;;;;;;6.95;4.50;;;2.50;84.90;;;;;;5001345;28;20090;-72
2021/01/26 09:04:13;;;;;;;9.02;4.63;;;2.50;94.60;;;;;;4995355;28;20030;-71
2021/01/26 09:06:38;;;;;;;6.90;4.22;;;2.50;77.70;;;;;;4996076;28;20106;-70
2021/01/26 09:09:05;;;;;;;6.78;3.90;;;2.50;88.30;;;;;;4988319;28;20058;-72
2021/01/26 09:11:46;;;;;;;4.75;3.55;;;2.60;78.80;;;;;;4995049;28;20023;-71
2021/01/26 09:14:45;;;;;;;4.20;3.38;;;2.60;93.10;;;;;;5008904;28;20029;-72
2021/01/26 09:17:31;;;;;;;4.25;3.53;;;2.50;40.90;;;;;;4992439;28;20084;-71
2021/01/26 09:20:22;;;;;;;7.28;4.13;;;2.60;42.60;;;;;;4989777;28;20057;-70
2021/01/26 09:22:48;;;;;;;10.43;3.80;;;2.60;57.10;;;;;;4984116;28;20038;-70
2021/01/26 09:25:35;;;;;;;7.35;3.60;;;2.60;36.20;;;;;;4994137;28;20030;-71
2021/01/26 09:28:06;;;;;;;4.85;3.13;;;2.70;6.30;;;;;;4987067;28;20566;-71
2021/01/26 09:30:33;;;;;;;3.08;2.55;;;2.70;1.00;;;;;;4986900;28;20053;-72
2021/01/26 09:33:07;;;;;;;5.15;3.00;;;2.80;1.00;;;;;;4993730;28;20034;-72
2021/01/26 09:35:37;;;;;;;3.17;2.88;;;2.90;1.00;;;;;;4991619;28;20034;-71
2021/01/26 09:38:14;;;;;;;5.20;3.20;;;3.00;1.00;;;;;;4994956;28;20034;-72
2021/01/26 09:40:43;;;;;;;4.28;2.65;;;3.10;1.00;;;;;;4994445;28;20030;-71
2021/01/26 09:43:11;;;;;;;9.05;5.03;;;3.20;1.00;;;;;;4999722;28;20390;-73
2021/01/26 09:45:38;;;;;;;4.97;2.45;;;3.30;1.00;;;;;;4990957;28;20540;-72
2021/01/26 09:48:04;;;;;;;4.97;2.28;;;3.40;1.00;;;;;;4976253;28;20433;-72
2021/01/26 09:50:31;;;;;;;3.30;1.92;;;3.50;1.00;;;;;;4991123;28;20029;-71
2021/01/26 09:53:00;;;;;;;5.43;2.30;;;3.40;1.00;;;;;;4996879;28;20034;-71
2021/01/26 09:55:27;;;;;;;3.55;2.40;;;3.30;1.00;;;;;;4989867;28;20041;-72
2021/01/26 09:57:54;;;;;;;8.25;2.60;;;3.30;1.00;;;;;;5004715;28;20112;-72
2021/01/26 10:00:23;;;;;;;5.13;2.40;;;3.30;1.00;;;;;;4998030;28;20026;-71
2021/01/26 10:02:57;;;;;;;9.20;3.63;;;3.20;1.00;;;;;;5000433;28;20030;-72
2021/01/26 10:05:24;;;;;;;3.85;2.28;;;3.20;1.00;;;;;;4996013;28;20025;-72
2021/01/26 10:08:11;;;;;;;5.32;2.58;;;3.20;1.00;;;;;;4990413;28;20486;-71
2021/01/26 10:10:38;;;;;;;2.10;1.90;;;3.20;1.00;;;;;;4982353;28;20113;-71
2021/01/26 10:13:24;;;;;;;4.22;2.10;;;3.30;1.00;;;;;;4984927;28;20034;-71
2021/01/26 10:15:50;;;;;;;3.28;1.83;;;3.40;99.90;;;;;;4987494;28;20030;-71
2021/01/26 10:18:18;;;;;;;3.03;2.00;;;3.50;99.90;;;;;;4993155;28;20034;-73
2021/01/26 10:20:44;;;;;;;2.75;1.80;;;3.60;99.90;;;;;;4994055;28;20030;-71
2021/01/26 10:23:13;;;;;;;3.00;1.63;;;3.60;99.90;;;;;;4991824;28;20089;-72
2021/01/26 10:25:41;;;;;;;2.83;1.60;;;3.60;99.90;;;;;;4989898;28;20086;-70
2021/01/26 10:28:26;;;;;;;2.60;1.60;;;3.70;99.90;;;;;;4994123;28;20054;-71
2021/01/26 10:30:53;;;;;;;2.97;1.60;;;3.70;99.90;;;;;;4994280;28;20109;-71
2021/01/26 10:33:49;;;;;;;1.48;1.38;;;3.70;99.90;;;;;;4994040;28;20033;-71
2021/01/26 10:36:29;;;;;;;6.10;3.85;;;3.80;99.90;;;;;;4982699;28;20050;-71
2021/01/26 10:38:56;;;;;;;2.33;2.10;;;3.80;99.90;;;;;;4993456;28;20080;-71
2021/01/26 10:41:28;;;;;;;4.15;2.00;;;3.80;99.90;;;;;;5009144;28;20031;-73
2021/01/26 10:44:11;;;;;;;3.75;2.10;;;3.80;99.90;;;;;;4984413;28;20042;-72
2021/01/26 10:46:41;;;;;;;3.72;1.80;;;3.70;99.90;;;;;;4989578;28;20030;-72
2021/01/26 10:49:30;;;;;;;3.40;1.70;;;3.70;99.90;;;;;;4998031;28;20037;-72
2021/01/26 10:51:55;;;;;;;2.20;2.00;;;3.70;99.90;;;;;;4995386;28;20451;-71
2021/01/26 10:54:22;;;;;;;5.32;2.60;;;3.60;99.90;;;;;;4997508;28;20065;-72
2021/01/26 10:56:47;;;;;;;3.00;2.22;;;3.50;99.90;;;;;;4991506;28;20104;-72
2021/01/26 10:59:16;;;;;;;3.03;1.77;;;3.50;99.90;;;;;;4998556;28;20509;-71
2021/01/26 11:01:43;;;;;;;2.38;1.85;;;3.40;99.90;;;;;;4991207;28;20027;-72
2021/01/26 11:04:09;;;;;;;11.05;2.17;;;3.50;99.90;;;;;;4988456;28;20026;-73
2021/01/26 11:06:35;;;;;;;2.55;1.90;;;3.50;99.90;;;;;;4996833;28;20505;-71
2021/01/26 11:09:01;;;;;;;3.20;2.20;;;3.40;99.90;;;;;;4987437;28;20030;-72
2021/01/26 11:11:28;;;;;;;2.13;1.92;;;3.40;99.90;;;;;;4995891;28;20121;-71
2021/01/26 11:13:55;;;;;;;2.50;1.95;;;3.50;99.90;;;;;;4994514;28;20454;-71
2021/01/26 11:16:22;;;;;;;3.63;1.58;;;3.60;99.90;;;;;;4995559;28;20037;-71
2021/01/26 11:18:47;;;;;;;2.00;1.60;;;3.50;99.90;;;;;;4995886;28;20054;-70
2021/01/26 11:21:13;;;;;;;2.67;2.38;;;3.50;99.90;;;;;;4996901;28;20034;-71
2021/01/26 11:23:40;;;;;;;3.35;1.55;;;3.50;99.90;;;;;;4996968;28;20030;-73
2021/01/26 11:26:08;;;;;;;3.65;2.10;;;3.60;99.90;;;;;;4996045;28;20045;-72
2021/01/26 11:28:33;;;;;;;4.53;1.88;;;3.60;99.90;;;;;;4992786;28;20502;-70
2021/01/26 11:31:00;;;;;;;3.45;1.77;;;3.60;99.90;;;;;;4998146;28;20034;-77
2021/01/26 11:33:25;;;;;;;2.53;1.98;;;3.70;99.90;;;;;;4997554;28;20058;-75
2021/01/26 11:35:51;;;;;;;9.55;1.80;;;3.80;99.90;;;;;;4997699;28;20214;-74
2021/01/26 11:38:16;;;;;;;2.65;1.80;;;3.90;96.70;;;;;;4986524;28;20049;-75
2021/01/26 11:40:42;;;;;;;2.17;1.40;;;4.00;99.90;;;;;;4998251;28;20038;-74
2021/01/26 11:43:08;;;;;;;2.67;1.85;;;4.10;4.00;;;;;;4995415;28;20031;-73
2021/01/26 11:45:36;;;;;;;2.50;1.75;;;4.10;10.90;;;;;;4996593;28;20022;-75
2021/01/26 11:48:05;;;;;;;2.35;1.83;;;4.10;1.00;;;;;;5007301;28;20014;-75
2021/01/26 11:50:31;;;;;;;2.03;1.48;;;4.00;1.00;;;;;;5013556;28;20023;-75
2021/01/26 11:52:57;;;;;;;6.80;1.85;;;3.80;1.00;;;;;;5006506;28;20037;-73
2021/01/26 11:55:26;;;;;;;4.93;1.92;;;3.80;13.50;;;;;;5001327;28;20034;-74
2021/01/26 11:57:52;;;;;;;6.50;2.55;;;3.80;1.00;;;;;;5001576;28;20038;-70
2021/01/26 12:00:21;;;;;;;2.40;1.83;;;3.90;1.00;;;;;;5006680;28;20027;-73
2021/01/26 12:02:47;;;;;;;4.70;2.03;;;3.90;1.00;;;;;;5004799;28;20049;-70
2021/01/26 12:05:14;;;;;;;7.93;2.60;;;4.00;1.00;;;;;;4994502;28;20026;-72
2021/01/26 12:07:40;;;;;;;4.65;1.92;;;3.90;1.00;;;;;;4990579;28;20134;-70
2021/01/26 12:10:07;;;;;;;3.63;2.60;;;4.00;1.00;;;;;;4999144;28;20453;-72
2021/01/26 12:12:36;;;;;;;3.75;2.17;;;4.10;1.00;;;;;;4996704;28;20026;-70
2021/01/26 12:15:02;;;;;;;3.67;2.42;;;4.20;1.00;;;;;;5001085;28;20425;-70
2021/01/26 12:17:28;;;;;;;5.05;2.15;;;4.20;1.00;;;;;;4997119;28;20040;-72
2021/01/26 12:19:54;;;;;;;3.10;2.38;;;4.20;99.90;;;;;;5011307;28;20034;-72
2021/01/26 12:22:19;;;;;;;5.22;2.50;;;4.30;1.00;;;;;;5005293;28;20093;-71
2021/01/26 12:24:45;;;;;;;5.47;2.10;;;4.40;99.90;;;;;;5010931;28;20037;-71
2021/01/26 12:27:11;;;;;;;4.72;1.85;;;4.40;99.90;;;;;;5001671;28;20083;-71
2021/01/26 12:29:37;;;;;;;5.13;2.25;;;4.40;1.00;;;;;;5006899;28;20057;-70
2021/01/26 12:32:02;;;;;;;4.03;2.22;;;4.50;1.00;;;;;;4992073;28;20458;-70
2021/01/26 12:34:28;;;;;;;9.38;2.50;;;4.60;1.00;;;;;;4996261;28;20042;-71
2021/01/26 12:36:54;;;;;;;2.50;1.60;;;4.60;99.90;;;;;;4995860;28;20034;-72
2021/01/26 12:39:20;;;;;;;9.35;2.85;;;4.60;99.90;;;;;;4994963;28;20371;-70
2021/01/26 12:41:46;;;;;;;7.07;2.35;;;4.60;99.90;;;;;;4995543;28;20482;-71
2021/01/26 12:44:11;;;;;;;6.15;2.20;;;4.60;99.90;;;;;;4998158;28;20110;-71
2021/01/26 12:46:38;;;;;;;4.88;1.73;;;4.60;99.90;;;;;;4998422;28;20030;-70
2021/01/26 12:49:07;;;;;;;4.07;2.53;;;4.50;99.90;;;;;;5005444;28;20026;-73
2021/01/26 12:51:32;;;;;;;13.98;4.00;;;4.60;99.90;;;;;;5000927;28;20033;-72
2021/01/26 12:53:58;;;;;;;3.00;1.67;;;4.70;99.90;;;;;;4993814;28;20030;-70
2021/01/26 12:56:24;;;;;;;2.28;1.48;;;4.70;99.90;;;;;;5000156;28;20075;-72
2021/01/26 12:58:50;;;;;;;2.97;1.95;;;4.60;99.90;;;;;;4998084;28;21577;-73
2021/01/26 13:01:16;;;;;;;4.88;1.80;;;4.50;99.90;;;;;;4996551;28;20033;-72
2021/01/26 13:03:42;;;;;;;5.00;2.13;;;4.50;99.90;;;;;;4993042;28;20031;-73
2021/01/26 13:06:08;;;;;;;2.72;2.05;;;4.50;99.90;;;;;;4996745;28;20030;-73
2021/01/26 13:08:33;;;;;;;4.00;2.13;;;4.40;99.90;;;;;;5003415;28;20023;-72
2021/01/26 13:10:59;;;;;;;5.30;2.22;;;4.50;99.90;;;;;;4998464;28;20502;-72
2021/01/26 13:13:24;;;;;;;4.57;2.88;;;4.60;99.90;;;;;;4991951;28;20015;-74
2021/01/26 13:15:50;;;;;;;2.55;1.77;;;4.80;99.90;;;;;;4995704;28;20027;-72
2021/01/26 13:18:16;;;;;;;3.63;1.52;;;4.90;99.90;;;;;;5000245;28;20022;-72
2021/01/26 13:20:41;;;;;;;6.60;1.90;;;4.90;99.90;;;;;;4997048;28;20033;-72
2021/01/26 13:23:09;;;;;;;2.90;1.98;;;4.70;99.90;;;;;;4996220;28;20057;-73
2021/01/26 13:25:35;;;;;;;3.63;1.85;;;4.80;99.90;;;;;;4990760;28;20034;-73
2021/01/26 13:28:02;;;;;;;3.03;1.73;;;4.70;99.90;;;;;;4994486;28;20390;-73
2021/01/26 13:30:30;;;;;;;2.55;1.50;;;4.70;1.00;;;;;;4996097;28;20038;-73